KFKN/FKN METAR and TAF weather

Enter ICAO airport designator
Station Type Date Time Source
KFKN METAR 2021/09/23 18:15 UTC NOAA

KFKN 231815Z AUTO 00000KT 10SM VCTS OVC042 20/20 A2990 RMK AO2 LTG DSNT S T02010195


Station Type Date Time Source
KFKN Decoded METAR 2021/09/23 18:15 UTC NOAA

Franklin / J B Rose, VA, United States (KFKN) 36-42N 076-54W
Sep 23, 2021 - 02:15 PM EDT / 2021.09.23 1815 UTC
Wind: Calm:0
Visibility: 10 mile(s):0
Sky conditions: overcast
Weather: thunder in the vicinity; Lightning observed
Temperature: 68.2 F (20.1 C)
Dew Point: 67.1 F (19.5 C)
Relative Humidity: 96%
Pressure (altimeter): 29.9 in. Hg (1012 hPa)
ob: KFKN 231815Z AUTO 00000KT 10SM VCTS OVC042 20/20 A2990 RMK AO2 LTG DSNT S T02010195
cycle: 18

Station Type Date Time Source
KFKN TAF UTC NOAA

Error!

Example: see airport list